Terminal Aerodrome Forecast
Issued by NWS

Home | Current Version | Previous Version | Text Only | Print | Product List | Glossary On
Versions: 1 2 3 4 5 6 7 8 9 10 11 12 13 14 15 16 17 18 19
000
FTUS43 KBIS 270535
TAFJMS
TAF
KJMS 270535Z 2706/2806 02012G20KT P6SM SCT010 OVC015
      TEMPO 2706/2709 SCT015 BKN035
     FM271800 34013G21KT P6SM BKN025
     FM272000 34013G21KT P6SM SCT025
     FM280100 35009KT P6SM FEW060=

USA.gov is the U.S. government's official web portal to all federal, state and local government web resources and services.